createdAt,value
2019-03-22T00:00:57.327Z,49.94
2019-03-22T00:03:27.939Z,49.99
2019-03-22T00:05:58.610Z,50.03
2019-03-22T00:08:29.285Z,50.11
2019-03-22T00:10:59.645Z,50.16
2019-03-22T00:13:30.230Z,50.20
2019-03-22T00:16:00.532Z,50.23
2019-03-22T00:18:32.141Z,50.27
2019-03-22T00:21:02.793Z,50.33
2019-03-22T00:23:33.466Z,50.38
2019-03-22T00:26:03.873Z,50.42
2019-03-22T00:28:35.667Z,50.46
2019-03-22T00:31:05.981Z,50.50
2019-03-22T00:33:36.673Z,50.56
2019-03-22T00:36:08.176Z,50.59
2019-03-22T00:38:38.451Z,50.63
2019-03-22T00:41:08.710Z,50.72
2019-03-22T00:43:39.034Z,50.77
2019-03-22T00:46:09.275Z,50.81
2019-03-22T00:48:39.496Z,50.87
2019-03-22T00:51:09.742Z,50.92
2019-03-22T00:53:39.948Z,50.96
2019-03-22T00:56:10.192Z,51.02
2019-03-22T00:58:40.867Z,51.08
2019-03-22T01:01:11.220Z,51.13
2019-03-22T01:03:41.471Z,51.18
2019-03-22T01:06:11.698Z,51.23
2019-03-22T01:08:41.955Z,51.29
2019-03-22T01:11:13.665Z,51.34
2019-03-22T01:13:45.517Z,51.40
2019-03-22T01:16:16.874Z,51.44
2019-03-22T01:18:47.108Z,51.48
2019-03-22T01:21:17.721Z,51.54
2019-03-22T01:23:47.926Z,51.58
2019-03-22T01:26:18.161Z,51.64
2019-03-22T01:28:48.371Z,51.69
2019-03-22T01:31:18.591Z,51.73
2019-03-22T01:33:49.183Z,51.79
2019-03-22T01:36:19.490Z,51.85
2019-03-22T01:38:49.747Z,51.89
2019-03-22T01:41:20.022Z,51.95
2019-03-22T01:43:50.730Z,51.98
2019-03-22T01:46:21.015Z,52.03
2019-03-22T01:48:51.252Z,52.09
2019-03-22T01:51:21.487Z,52.15
2019-03-22T01:53:52.101Z,52.20
2019-03-22T01:56:22.744Z,52.25
2019-03-22T01:58:53.402Z,52.28
2019-03-22T02:01:23.696Z,52.33
2019-03-22T02:03:53.936Z,52.39
2019-03-22T02:06:24.150Z,52.42
2019-03-22T02:08:55.097Z,52.49
2019-03-22T02:11:25.703Z,52.50
2019-03-22T02:13:56.023Z,52.55
2019-03-22T02:16:26.589Z,52.59
2019-03-22T02:18:56.911Z,52.64
2019-03-22T02:21:27.496Z,52.66
2019-03-22T02:23:57.772Z,52.72
2019-03-22T02:26:28.013Z,52.78
2019-03-22T02:28:58.251Z,52.83
2019-03-22T02:31:28.459Z,52.87
2019-03-22T02:33:58.688Z,52.93
2019-03-22T02:36:30.268Z,52.96
2019-03-22T02:39:00.880Z,53.01
2019-03-22T02:41:32.829Z,53.06
2019-03-22T02:44:03.380Z,53.10
2019-03-22T02:46:33.666Z,53.13
2019-03-22T02:49:04.379Z,53.18
2019-03-22T02:51:34.792Z,53.22
2019-03-22T02:54:05.396Z,53.26
2019-03-22T02:56:36.053Z,53.30
2019-03-22T02:59:06.355Z,53.37
2019-03-22T03:01:36.640Z,53.41
2019-03-22T03:04:07.020Z,53.46
2019-03-22T03:06:37.366Z,53.53
2019-03-22T03:09:07.638Z,53.58
2019-03-22T03:11:38.271Z,53.64
2019-03-22T03:14:08.589Z,53.71
2019-03-22T03:16:39.150Z,53.77
2019-03-22T03:19:09.452Z,53.83
2019-03-22T03:21:39.719Z,53.89
2019-03-22T03:24:11.473Z,53.95
2019-03-22T03:26:42.181Z,54.01
2019-03-22T03:29:12.885Z,54.06
2019-03-22T03:31:43.175Z,54.12
2019-03-22T03:34:13.409Z,54.15
2019-03-22T03:36:43.602Z,54.21
2019-03-22T03:39:13.836Z,54.26
2019-03-22T03:41:44.156Z,54.30
2019-03-22T03:44:14.401Z,54.35
2019-03-22T03:46:44.904Z,54.41
2019-03-22T03:49:15.116Z,54.46
2019-03-22T03:51:45.795Z,54.50
2019-03-22T03:54:16.497Z,54.53
2019-03-22T03:56:46.807Z,54.58
2019-03-22T03:59:17.005Z,54.65
2019-03-22T04:01:47.251Z,54.69
2019-03-22T04:04:17.466Z,54.75
2019-03-22T04:06:47.698Z,54.80
2019-03-22T04:09:17.961Z,54.85
2019-03-22T04:11:48.520Z,54.90
2019-03-22T04:14:19.188Z,54.97
2019-03-22T04:16:49.821Z,55.02
2019-03-22T04:19:20.480Z,55.08
2019-03-22T04:21:50.768Z,55.11
2019-03-22T04:24:21.485Z,55.17
2019-03-22T04:26:52.149Z,55.22
2019-03-22T04:29:22.816Z,55.28
2019-03-22T04:31:53.116Z,55.32
2019-03-22T04:34:23.679Z,55.36
2019-03-22T04:36:54.175Z,55.41
2019-03-22T04:39:25.444Z,55.46
2019-03-22T04:41:56.035Z,55.51
2019-03-22T04:44:26.667Z,55.57
2019-03-22T04:46:58.151Z,55.61
2019-03-22T04:49:31.318Z,55.66
2019-03-22T04:52:02.220Z,55.71
2019-03-22T04:54:37.251Z,55.75
2019-03-22T04:57:13.071Z,55.81
2019-03-22T04:59:47.352Z,55.86
2019-03-22T05:02:19.308Z,55.90
2019-03-22T05:04:50.238Z,55.96
2019-03-22T05:07:20.931Z,55.99
2019-03-22T05:09:52.604Z,56.06
2019-03-22T05:12:24.929Z,56.10
2019-03-22T05:14:58.408Z,56.18
2019-03-22T05:17:30.326Z,56.24
2019-03-22T05:20:01.519Z,56.32
2019-03-22T05:22:34.443Z,56.39
2019-03-22T05:25:05.531Z,56.47
2019-03-22T05:27:40.720Z,56.56
2019-03-22T05:30:33.874Z,56.65
2019-03-22T05:33:04.562Z,56.71
2019-03-22T05:35:34.853Z,56.82
2019-03-22T05:38:05.433Z,56.89
2019-03-22T05:40:37.563Z,57.00
2019-03-22T05:43:07.789Z,57.06
2019-03-22T05:45:38.429Z,57.11
2019-03-22T05:48:08.703Z,57.21
2019-03-22T05:50:39.271Z,57.26
2019-03-22T05:53:10.829Z,57.34
2019-03-22T05:55:41.462Z,57.42
2019-03-22T05:58:11.785Z,57.46
2019-03-22T06:00:42.389Z,57.53
2019-03-22T06:03:13.021Z,57.61
2019-03-22T06:05:43.335Z,57.67
2019-03-22T06:08:14.008Z,57.73
2019-03-22T06:10:44.335Z,57.78
2019-03-22T06:13:14.564Z,57.86
2019-03-22T06:15:44.809Z,57.92
2019-03-22T06:18:16.081Z,57.96
2019-03-22T06:20:47.559Z,58.01
2019-03-22T06:23:18.218Z,58.08
2019-03-22T06:25:48.521Z,58.13
2019-03-22T06:28:18.766Z,58.17
2019-03-22T06:30:49.084Z,58.21
2019-03-22T06:33:19.297Z,58.28
2019-03-22T06:35:49.519Z,58.29
2019-03-22T06:38:20.102Z,58.33
2019-03-22T06:40:50.801Z,58.41
2019-03-22T06:43:21.437Z,58.45
2019-03-22T06:45:51.774Z,58.50
2019-03-22T06:48:22.040Z,58.54
2019-03-22T06:50:52.755Z,58.60
2019-03-22T06:53:23.041Z,58.64
2019-03-22T06:55:53.263Z,58.66
2019-03-22T06:58:24.288Z,58.72
2019-03-22T07:00:54.942Z,58.76
2019-03-22T07:03:25.520Z,58.83
2019-03-22T07:05:56.201Z,58.88
2019-03-22T07:08:26.882Z,58.93
2019-03-22T07:10:57.300Z,58.97
2019-03-22T07:13:28.645Z,59.03
2019-03-22T07:15:59.321Z,59.06
2019-03-22T07:18:29.612Z,59.09
2019-03-22T07:21:00.204Z,59.13
2019-03-22T07:23:31.460Z,59.17
2019-03-22T07:26:02.145Z,59.17
2019-03-22T07:28:32.499Z,59.19
2019-03-22T07:31:02.832Z,59.19
2019-03-22T07:33:33.074Z,59.20
2019-03-22T07:36:03.332Z,59.19
2019-03-22T07:38:33.573Z,59.16
2019-03-22T07:41:03.810Z,59.17
2019-03-22T07:43:35.215Z,59.17
2019-03-22T07:46:06.214Z,59.14
2019-03-22T07:48:36.902Z,59.14
2019-03-22T07:51:07.612Z,59.12
2019-03-22T07:53:37.924Z,59.14
2019-03-22T07:56:09.807Z,59.14
2019-03-22T07:58:41.142Z,59.15
2019-03-22T08:01:11.748Z,59.16
2019-03-22T08:03:42.438Z,59.17
2019-03-22T08:06:12.775Z,59.17
2019-03-22T08:08:43.358Z,59.19
2019-03-22T08:11:14.751Z,59.19
2019-03-22T08:13:45.374Z,59.20
2019-03-22T08:16:15.730Z,59.19
2019-03-22T08:18:46.303Z,59.21
2019-03-22T08:21:17.684Z,59.22
2019-03-22T08:23:54.378Z,59.23
2019-03-22T08:26:25.018Z,59.23
2019-03-22T08:28:55.670Z,59.27
2019-03-22T08:31:26.000Z,59.27
2019-03-22T08:33:56.201Z,59.26
2019-03-22T08:36:26.430Z,59.21
2019-03-22T08:38:57.045Z,59.20
2019-03-22T08:41:27.352Z,59.13
2019-03-22T08:44:02.598Z,59.05
2019-03-22T08:46:32.139Z,58.95
2019-03-22T08:49:02.875Z,58.84
2019-03-22T08:51:34.771Z,58.77
2019-03-22T08:54:07.780Z,58.64
2019-03-22T08:56:39.425Z,58.51
2019-03-22T08:59:13.393Z,58.40
2019-03-22T09:01:44.665Z,58.27
2019-03-22T09:04:15.412Z,58.14
2019-03-22T09:06:45.697Z,58.05
2019-03-22T09:09:16.089Z,57.97
2019-03-22T09:11:47.896Z,57.80
2019-03-22T09:14:18.371Z,57.61
2019-03-22T09:16:48.686Z,57.36
2019-03-22T09:19:19.410Z,57.09
2019-03-22T09:21:50.259Z,56.82
2019-03-22T09:24:20.725Z,56.57
2019-03-22T09:26:52.604Z,56.34
2019-03-22T09:29:23.392Z,56.08
2019-03-22T09:31:55.138Z,55.90
2019-03-22T09:34:33.534Z,55.74
2019-03-22T09:36:58.304Z,55.60
2019-03-22T09:39:29.005Z,55.47
2019-03-22T09:42:00.946Z,55.35
2019-03-22T09:44:42.877Z,55.13
2019-03-22T09:47:03.528Z,54.94
2019-03-22T09:49:33.771Z,54.74
2019-03-22T09:52:04.869Z,54.49
2019-03-22T09:54:38.771Z,54.24
2019-03-22T09:57:11.085Z,54.05
2019-03-22T09:59:41.383Z,53.90
2019-03-22T10:02:13.113Z,53.73
2019-03-22T10:04:43.539Z,53.65
2019-03-22T10:07:13.759Z,53.55
2019-03-22T10:09:44.450Z,53.44
2019-03-22T10:12:16.741Z,53.27
2019-03-22T10:14:47.562Z,53.06
2019-03-22T10:17:18.624Z,52.89
2019-03-22T10:19:50.344Z,52.67
2019-03-22T10:22:20.983Z,52.52
2019-03-22T10:24:51.337Z,52.36
2019-03-22T10:27:22.115Z,52.27
2019-03-22T10:29:52.404Z,52.24
2019-03-22T10:32:23.937Z,52.13
2019-03-22T10:34:54.939Z,51.98
2019-03-22T10:37:25.742Z,51.84
2019-03-22T10:39:58.217Z,51.70
2019-03-22T10:42:28.915Z,51.59
2019-03-22T10:44:59.649Z,51.47
2019-03-22T10:47:32.043Z,51.38
2019-03-22T10:50:02.370Z,51.29
2019-03-22T10:52:32.653Z,51.18
2019-03-22T10:55:23.488Z,51.08
2019-03-22T10:57:35.169Z,51.00
2019-03-22T11:00:08.780Z,50.91
2019-03-22T11:02:39.661Z,50.83
2019-03-22T11:05:10.240Z,50.77
2019-03-22T11:07:40.836Z,50.67
2019-03-22T11:10:14.966Z,50.60
2019-03-22T11:12:45.808Z,50.55
2019-03-22T11:15:18.311Z,50.49
2019-03-22T11:17:49.125Z,50.46
2019-03-22T11:20:21.043Z,50.41
2019-03-22T11:22:51.390Z,50.33
2019-03-22T11:25:22.047Z,50.24
2019-03-22T11:27:52.952Z,50.15
2019-03-22T11:30:24.481Z,50.08
2019-03-22T11:32:54.840Z,49.97
2019-03-22T11:35:25.355Z,49.91
2019-03-22T11:37:56.148Z,49.84
2019-03-22T11:40:29.325Z,49.75
2019-03-22T11:43:08.226Z,49.66
2019-03-22T11:45:32.401Z,49.62
2019-03-22T11:48:03.246Z,49.54
2019-03-22T11:50:34.089Z,49.48
2019-03-22T11:53:06.378Z,49.45
2019-03-22T11:55:36.588Z,49.40
2019-03-22T11:58:06.825Z,49.33
2019-03-22T12:00:37.571Z,49.25
2019-03-22T12:03:07.925Z,49.16
2019-03-22T12:05:40.548Z,49.04
2019-03-22T12:08:11.403Z,48.95
2019-03-22T12:10:43.675Z,48.84
2019-03-22T12:13:14.400Z,48.78
2019-03-22T12:15:46.673Z,48.72
2019-03-22T12:18:20.457Z,48.63
2019-03-22T12:20:50.831Z,48.57
2019-03-22T12:23:21.489Z,48.52
2019-03-22T12:25:52.125Z,48.46
2019-03-22T12:28:24.287Z,48.39
2019-03-22T12:30:54.944Z,48.33
2019-03-22T12:33:25.229Z,48.27
2019-03-22T12:35:55.995Z,48.17
2019-03-22T12:38:26.632Z,48.12
2019-03-22T12:40:58.233Z,48.05
2019-03-22T12:43:31.457Z,47.97
2019-03-22T12:46:03.475Z,47.90
2019-03-22T12:48:35.799Z,47.83
2019-03-22T12:51:06.190Z,47.70
2019-03-22T12:53:36.462Z,47.63
2019-03-22T12:56:06.654Z,47.58
2019-03-22T12:58:39.977Z,47.53
2019-03-22T13:01:10.744Z,47.48
2019-03-22T13:03:41.432Z,47.43
2019-03-22T13:06:11.716Z,47.37
2019-03-22T13:08:41.926Z,47.31
2019-03-22T13:11:12.288Z,47.25
2019-03-22T13:13:42.510Z,47.22
2019-03-22T13:16:12.749Z,47.17
2019-03-22T13:18:50.022Z,47.08
2019-03-22T13:21:16.785Z,47.04
2019-03-22T13:23:47.178Z,46.98
2019-03-22T13:26:17.910Z,46.94
2019-03-22T13:28:48.267Z,46.89
2019-03-22T13:31:18.504Z,46.86
2019-03-22T13:33:48.714Z,46.84
2019-03-22T13:36:18.962Z,46.79
2019-03-22T13:38:50.346Z,46.75
2019-03-22T13:41:20.940Z,46.70
2019-03-22T13:43:52.497Z,46.65
2019-03-22T13:46:22.790Z,46.61
2019-03-22T13:48:53.112Z,46.58
2019-03-22T13:51:23.753Z,46.57
2019-03-22T13:53:54.498Z,46.49
2019-03-22T13:56:26.381Z,46.45
2019-03-22T13:58:56.766Z,46.38
2019-03-22T14:01:27.456Z,46.32
2019-03-22T14:03:58.251Z,46.27
2019-03-22T14:06:28.543Z,46.20
2019-03-22T14:08:59.200Z,46.14
2019-03-22T14:11:29.576Z,46.11
2019-03-22T14:14:01.919Z,46.06
2019-03-22T14:16:32.565Z,46.01
2019-03-22T14:19:04.089Z,45.98
2019-03-22T14:21:34.780Z,45.94
2019-03-22T14:24:05.626Z,45.88
2019-03-22T14:26:36.356Z,45.85
2019-03-22T14:29:06.652Z,45.79
2019-03-22T14:31:36.861Z,45.77
2019-03-22T14:34:07.182Z,45.73
2019-03-22T14:36:37.411Z,45.68
2019-03-22T14:39:08.962Z,45.62
2019-03-22T14:41:39.195Z,45.58
2019-03-22T14:44:09.404Z,45.55
2019-03-22T14:46:40.007Z,45.53
2019-03-22T14:49:10.710Z,45.49
2019-03-22T14:51:41.023Z,45.48
2019-03-22T14:54:11.235Z,45.42
2019-03-22T14:56:41.459Z,45.34
2019-03-22T14:59:12.046Z,45.30
2019-03-22T15:01:42.354Z,45.25
2019-03-22T15:04:12.681Z,45.23
2019-03-22T15:06:42.902Z,45.19
2019-03-22T15:09:13.290Z,45.15
2019-03-22T15:11:45.443Z,45.13
2019-03-22T15:14:33.626Z,45.09
2019-03-22T15:17:14.557Z,45.08
2019-03-22T15:19:49.769Z,45.04
2019-03-22T15:22:37.624Z,45.03
2019-03-22T15:25:17.607Z,44.99
2019-03-22T15:28:06.096Z,44.96
2019-03-22T15:30:54.901Z,44.93
2019-03-22T15:33:34.223Z,44.90
2019-03-22T15:36:19.193Z,44.87
2019-03-22T15:39:08.102Z,44.84
2019-03-22T15:41:39.310Z,44.79
2019-03-22T15:44:09.674Z,44.75
2019-03-22T15:46:39.977Z,44.67
2019-03-22T15:49:20.755Z,44.61
2019-03-22T15:51:56.122Z,44.54
2019-03-22T15:54:29.532Z,44.46
2019-03-22T15:57:10.167Z,44.37
2019-03-22T15:59:40.546Z,44.30
2019-03-22T16:02:10.850Z,44.26
2019-03-22T16:04:41.057Z,44.18
2019-03-22T16:07:11.292Z,44.11
2019-03-22T16:09:41.610Z,44.04
2019-03-22T16:12:11.965Z,43.96
2019-03-22T16:14:42.541Z,43.92
2019-03-22T16:17:13.201Z,43.89
2019-03-22T16:19:43.489Z,43.84
2019-03-22T16:22:15.289Z,43.80
2019-03-22T16:24:45.580Z,43.74
2019-03-22T16:27:16.239Z,43.70
2019-03-22T16:29:46.945Z,43.66
2019-03-22T16:32:17.228Z,43.63
2019-03-22T16:34:47.850Z,43.59
2019-03-22T16:37:18.199Z,43.56
2019-03-22T16:39:48.852Z,43.51
2019-03-22T16:42:19.198Z,43.48
2019-03-22T16:44:49.812Z,43.45
2019-03-22T16:47:21.394Z,43.40
2019-03-22T16:49:51.604Z,43.39
2019-03-22T16:52:22.284Z,43.37
2019-03-22T16:54:52.588Z,43.38
2019-03-22T16:57:23.186Z,43.36
2019-03-22T16:59:53.473Z,43.33
2019-03-22T17:02:24.079Z,43.35
2019-03-22T17:04:54.709Z,43.31
2019-03-22T17:07:25.674Z,43.30
2019-03-22T17:09:56.324Z,43.28
2019-03-22T17:12:26.637Z,43.27
2019-03-22T17:14:59.572Z,43.26
2019-03-22T17:17:31.539Z,43.24
2019-03-22T17:20:01.934Z,43.23
2019-03-22T17:22:32.229Z,43.21
2019-03-22T17:25:02.585Z,43.21
2019-03-22T17:27:32.901Z,43.18
2019-03-22T17:30:04.475Z,43.20
2019-03-22T17:32:34.702Z,43.17
2019-03-22T17:35:09.354Z,43.18
2019-03-22T17:37:39.995Z,43.19
2019-03-22T17:40:10.867Z,43.20
2019-03-22T17:42:41.430Z,43.18
2019-03-22T17:45:15.625Z,43.20
2019-03-22T17:47:46.368Z,43.24
2019-03-22T17:50:16.925Z,43.26
2019-03-22T17:52:47.308Z,43.29
2019-03-22T17:55:17.544Z,43.32
2019-03-22T17:57:47.882Z,43.36
2019-03-22T18:00:27.739Z,43.37
2019-03-22T18:02:58.018Z,43.38
2019-03-22T18:05:28.307Z,43.41
2019-03-22T18:08:00.168Z,43.42
2019-03-22T18:10:30.417Z,43.44
2019-03-22T18:13:01.062Z,43.48
2019-03-22T18:15:31.412Z,43.50
2019-03-22T18:18:03.527Z,43.55
2019-03-22T18:20:33.863Z,43.58
2019-03-22T18:23:04.102Z,43.62
2019-03-22T18:25:34.691Z,43.63
2019-03-22T18:28:05.339Z,43.66
2019-03-22T18:30:35.660Z,43.69
2019-03-22T18:33:06.254Z,43.73
2019-03-22T18:35:36.587Z,43.77
2019-03-22T18:38:06.862Z,43.82
2019-03-22T18:40:37.196Z,43.88
2019-03-22T18:43:07.416Z,43.92
2019-03-22T18:45:37.628Z,43.96
2019-03-22T18:48:09.379Z,43.99
2019-03-22T18:50:39.958Z,44.04
2019-03-22T18:53:10.245Z,44.08
2019-03-22T18:55:40.822Z,44.13
2019-03-22T18:58:11.133Z,44.19
2019-03-22T19:00:41.763Z,44.22
2019-03-22T19:03:12.057Z,44.26
2019-03-22T19:05:43.965Z,44.32
2019-03-22T19:08:14.521Z,44.36
2019-03-22T19:10:45.079Z,44.41
2019-03-22T19:13:15.366Z,44.44
2019-03-22T19:15:45.931Z,44.51
2019-03-22T19:18:16.660Z,44.56
2019-03-22T19:20:46.994Z,44.59
2019-03-22T19:23:18.203Z,44.63
2019-03-22T19:25:48.798Z,44.67
2019-03-22T19:28:19.115Z,44.72
2019-03-22T19:30:49.322Z,44.80
2019-03-22T19:33:19.592Z,44.84
2019-03-22T19:35:49.812Z,44.87
2019-03-22T19:38:20.079Z,44.93
2019-03-22T19:40:50.286Z,44.97
2019-03-22T19:43:20.554Z,45.02
2019-03-22T19:45:51.602Z,45.07
2019-03-22T19:48:21.839Z,45.12
2019-03-22T19:50:52.086Z,45.16
2019-03-22T19:53:23.876Z,45.21
2019-03-22T19:55:54.150Z,45.25
2019-03-22T19:58:24.708Z,45.32
2019-03-22T20:00:55.015Z,45.38
2019-03-22T20:03:25.254Z,45.41
2019-03-22T20:05:55.561Z,45.46
2019-03-22T20:08:25.775Z,45.52
2019-03-22T20:10:55.994Z,45.57
2019-03-22T20:13:26.239Z,45.62
2019-03-22T20:15:56.516Z,45.70
2019-03-22T20:18:26.714Z,45.74
2019-03-22T20:20:57.277Z,45.79
2019-03-22T20:23:27.912Z,45.84
2019-03-22T20:25:58.569Z,45.87
2019-03-22T20:28:28.872Z,45.90
2019-03-22T20:30:59.114Z,45.91
2019-03-22T20:33:29.432Z,45.96
2019-03-22T20:35:59.710Z,46.01
2019-03-22T20:38:30.417Z,46.04
2019-03-22T20:41:01.039Z,46.07
2019-03-22T20:43:31.703Z,46.13
2019-03-22T20:46:03.108Z,46.16
2019-03-22T20:48:33.693Z,46.20
2019-03-22T20:51:04.408Z,46.24
2019-03-22T20:53:34.701Z,46.28
2019-03-22T20:56:04.927Z,46.31
2019-03-22T20:58:35.182Z,46.37
2019-03-22T21:01:05.816Z,46.39
2019-03-22T21:03:36.187Z,46.45
2019-03-22T21:06:06.771Z,46.48
2019-03-22T21:08:37.300Z,46.53
2019-03-22T21:11:07.491Z,46.57
2019-03-22T21:13:37.718Z,46.58
2019-03-22T21:16:07.971Z,46.62
2019-03-22T21:18:38.217Z,46.66
2019-03-22T21:21:08.473Z,46.69
2019-03-22T21:23:38.697Z,46.74
2019-03-22T21:26:09.009Z,46.76
2019-03-22T21:28:39.584Z,46.81
2019-03-22T21:31:09.913Z,46.85
2019-03-22T21:33:40.212Z,46.89
2019-03-22T21:36:10.414Z,46.93
2019-03-22T21:38:40.740Z,46.98
2019-03-22T21:41:11.313Z,47.02
2019-03-22T21:43:41.618Z,47.05
2019-03-22T21:46:11.841Z,47.10
2019-03-22T21:48:42.102Z,47.14
2019-03-22T21:51:12.385Z,47.19
2019-03-22T21:53:42.824Z,47.23
2019-03-22T21:56:13.430Z,47.27
2019-03-22T21:58:44.192Z,47.30
2019-03-22T22:01:14.489Z,47.36
2019-03-22T22:03:44.761Z,47.41
2019-03-22T22:06:14.973Z,47.44
2019-03-22T22:08:45.196Z,47.48
2019-03-22T22:11:15.807Z,47.51
2019-03-22T22:13:46.459Z,47.55
2019-03-22T22:16:17.126Z,47.58
2019-03-22T22:18:49.946Z,47.61
2019-03-22T22:21:21.331Z,47.64
2019-03-22T22:23:53.088Z,47.67
2019-03-22T22:26:23.768Z,47.70
2019-03-22T22:28:54.084Z,47.74
2019-03-22T22:31:24.299Z,47.77
2019-03-22T22:33:54.593Z,47.82
2019-03-22T22:36:24.928Z,47.85
2019-03-22T22:38:55.211Z,47.91
2019-03-22T22:41:25.786Z,47.94
2019-03-22T22:43:56.089Z,47.98
2019-03-22T22:46:26.696Z,48.03
2019-03-22T22:48:57.396Z,48.08
2019-03-22T22:51:29.023Z,48.11
2019-03-22T22:53:59.405Z,48.15
2019-03-22T22:56:29.660Z,48.20
2019-03-22T22:58:59.884Z,48.25
2019-03-22T23:01:30.129Z,48.26
2019-03-22T23:04:00.742Z,48.31
2019-03-22T23:06:31.393Z,48.33
2019-03-22T23:09:01.681Z,48.37
2019-03-22T23:11:33.896Z,48.40
2019-03-22T23:14:04.601Z,48.43
2019-03-22T23:16:34.903Z,48.46
2019-03-22T23:19:05.167Z,48.49
2019-03-22T23:21:35.446Z,48.53
2019-03-22T23:24:06.022Z,48.56
2019-03-22T23:26:36.685Z,48.59
2019-03-22T23:29:08.415Z,48.63
2019-03-22T23:31:39.134Z,48.65
2019-03-22T23:34:09.856Z,48.68
2019-03-22T23:36:40.142Z,48.72
2019-03-22T23:39:10.393Z,48.75
2019-03-22T23:41:40.617Z,48.78
2019-03-22T23:44:10.867Z,48.81
2019-03-22T23:46:41.446Z,48.85
2019-03-22T23:49:11.767Z,48.88
2019-03-22T23:51:42.001Z,48.90
2019-03-22T23:54:12.609Z,48.94
2019-03-22T23:56:43.283Z,48.97
2019-03-22T23:59:14.161Z,49.01
